aviador You're here:

CYTE Decoded Metar

CAPE DORSET in NU, CANADA
Report Time2017-08-18 16:00:00
UTC Time2017-08-18 16:28:03
Flight Rules vfr VFR
Wind100° at 04 kt
W.Decomp.*RWY 13: 4.0 kt HW 0.2 kt LCW
W.Rank100° ranks 8
Current wind is below 100° avg. (10.1)
Visibility9999 m
Phenomena:N/A
Clouds:Scattered 260 Hf
Expected CloudBase > 4,400 ft AGL from Temp-Dew spread
CeilingNone
Temp10°C (ISA -5)
Dew Point-1°C (47% RH)
AAT6.5°C
QNH1009 hPa
Density Alt-190 ft
Elevation154 ft
Report Wrong Elevation
Raw Report
CYTE 181600Z 10004KT 040V160 15SM SCT260 10/M01 A2981 RMK CI3
SLP100=

Extra information for CYTE:More info

Metar Taf Metar & Taf Last 4 Metars F.Rules Stats Wind Profile Meteogram Temp Stats Airport Information Weather charts Add Link Nearby VenuesMetar ALERT Operation Metar Decoded Social comments